createdAt,value
2023-04-05T00:01:39.152Z,101066.97
2023-04-05T00:04:08.436Z,101058.31
2023-04-05T00:06:40.004Z,101062.63
2023-04-05T00:09:09.296Z,101060.03
2023-04-05T00:11:38.006Z,101057.50
2023-04-05T00:14:07.058Z,101062.78
2023-04-05T00:16:37.372Z,101057.56
2023-04-05T00:19:06.561Z,101057.63
2023-04-05T00:21:35.587Z,101048.19
2023-04-05T00:24:05.369Z,101040.53
2023-04-05T00:26:34.325Z,101043.97
2023-04-05T00:29:03.319Z,101044.78
2023-04-05T00:31:32.206Z,101039.69
2023-04-05T00:34:02.789Z,101037.13
2023-04-05T00:36:32.226Z,101036.31
2023-04-05T00:39:01.223Z,101037.94
2023-04-05T00:41:29.949Z,101032.00
2023-04-05T00:44:00.021Z,101024.28
2023-04-05T00:46:29.823Z,101034.59
2023-04-05T00:48:59.187Z,101020.88
2023-04-05T00:51:30.086Z,101014.91
2023-04-05T00:53:59.236Z,101021.75
2023-04-05T00:56:29.344Z,101025.19
2023-04-05T00:58:58.601Z,101022.66
2023-04-05T01:01:29.005Z,101021.03
2023-04-05T01:04:05.430Z,101013.34
2023-04-05T01:06:54.452Z,101006.50
2023-04-05T01:09:38.324Z,101005.59
2023-04-05T01:12:11.234Z,101015.06
2023-04-05T01:14:50.093Z,101011.59
2023-04-05T01:17:22.341Z,101006.47
2023-04-05T01:19:54.449Z,101009.09
2023-04-05T01:22:55.624Z,100999.69
2023-04-05T01:26:00.135Z,101010.06
2023-04-05T01:29:15.317Z,101000.66
2023-04-05T01:31:55.108Z,101005.78
2023-04-05T01:34:34.997Z,100998.94
2023-04-05T01:37:12.657Z,101008.38
2023-04-05T01:39:41.994Z,101004.19
2023-04-05T01:42:12.076Z,101010.19
2023-04-05T01:44:42.328Z,101004.09
2023-04-05T01:47:12.831Z,101008.41
2023-04-05T01:49:41.620Z,101012.75
2023-04-05T01:52:10.842Z,101011.06
2023-04-05T01:54:39.725Z,101016.28
2023-04-05T01:57:10.553Z,101009.38
2023-04-05T01:59:39.320Z,101003.31
2023-04-05T02:02:08.380Z,101009.38
2023-04-05T02:04:38.795Z,100994.00
2023-04-05T02:07:07.846Z,101014.66
2023-04-05T02:09:36.548Z,101012.91
2023-04-05T02:12:05.913Z,101017.28
2023-04-05T02:14:35.423Z,101016.47
2023-04-05T02:17:04.472Z,101018.22
2023-04-05T02:19:40.910Z,101015.63
2023-04-05T02:22:11.721Z,101016.47
2023-04-05T02:24:40.531Z,101014.72
2023-04-05T02:27:09.600Z,101022.53
2023-04-05T02:29:38.812Z,101013.94
2023-04-05T02:32:07.895Z,101016.47
2023-04-05T02:34:37.098Z,101014.75
2023-04-05T02:37:06.414Z,101015.66
2023-04-05T02:39:36.853Z,101013.09
2023-04-05T02:42:06.586Z,101008.81
2023-04-05T02:44:35.471Z,101017.44
2023-04-05T02:47:04.917Z,101018.38
2023-04-05T02:49:34.735Z,101016.66
2023-04-05T02:52:06.682Z,101006.41
2023-04-05T02:54:37.850Z,101010.69
2023-04-05T02:57:10.657Z,101014.16
2023-04-05T02:59:48.437Z,101010.75
2023-04-05T03:02:17.533Z,101008.16
2023-04-05T03:04:46.643Z,101000.44
2023-04-05T03:07:18.727Z,101015.03
2023-04-05T03:09:51.433Z,101015.06
2023-04-05T03:12:21.405Z,101006.53
2023-04-05T03:14:51.069Z,101006.47
2023-04-05T03:17:24.480Z,100992.72
2023-04-05T03:20:02.382Z,101013.28
2023-04-05T03:22:32.064Z,101013.19
2023-04-05T03:25:03.557Z,101017.47
2023-04-05T03:27:33.935Z,101015.69
2023-04-05T03:30:09.191Z,101014.84
2023-04-05T03:32:43.832Z,101020.81
2023-04-05T03:35:22.580Z,101020.78
2023-04-05T03:37:52.500Z,101001.81
2023-04-05T03:40:23.560Z,101011.22
2023-04-05T03:42:53.723Z,101015.53
2023-04-05T03:45:24.580Z,101010.34
2023-04-05T03:47:55.130Z,101016.31
2023-04-05T03:50:24.322Z,101018.81
2023-04-05T03:52:54.914Z,101016.19
2023-04-05T03:55:25.934Z,101018.78
2023-04-05T03:57:55.513Z,101014.44
2023-04-05T04:00:34.449Z,101015.31
2023-04-05T04:03:17.829Z,101023.84
2023-04-05T04:05:50.932Z,101018.66
2023-04-05T04:08:20.900Z,101022.94
2023-04-05T04:10:52.123Z,101015.13
2023-04-05T04:13:25.494Z,101016.84
2023-04-05T04:16:02.313Z,101024.47
2023-04-05T04:18:49.880Z,101021.88
2023-04-05T04:21:52.479Z,101020.94
2023-04-05T04:24:50.206Z,101020.88
2023-04-05T04:27:46.750Z,101026.13
2023-04-05T04:30:23.531Z,101031.16
2023-04-05T04:33:09.318Z,101024.13
2023-04-05T04:35:47.258Z,101038.75
2023-04-05T04:38:19.011Z,101030.13
2023-04-05T04:41:08.758Z,101028.38
2023-04-05T04:44:04.393Z,101023.84
2023-04-05T04:46:54.795Z,101031.72
2023-04-05T04:49:46.704Z,101029.13
2023-04-05T04:52:15.780Z,101024.75
2023-04-05T04:54:47.316Z,101023.81
2023-04-05T04:57:16.336Z,101024.66
2023-04-05T04:59:46.436Z,101028.03
2023-04-05T05:02:15.492Z,101033.16
2023-04-05T05:04:44.576Z,101025.31
2023-04-05T05:07:13.629Z,101025.28
2023-04-05T05:09:42.487Z,101028.66
2023-04-05T05:12:11.572Z,101037.13
2023-04-05T05:14:40.745Z,101036.19
2023-04-05T05:17:11.119Z,101037.84
2023-04-05T05:19:39.968Z,101035.22
2023-04-05T05:22:08.935Z,101042.06
2023-04-05T05:24:38.130Z,101042.00
2023-04-05T05:27:07.617Z,101038.63
2023-04-05T05:29:36.422Z,101041.94
2023-04-05T05:32:06.487Z,101037.63
2023-04-05T05:34:37.329Z,101035.97
2023-04-05T05:37:06.833Z,101037.56
2023-04-05T05:39:35.483Z,101044.34
2023-04-05T05:42:04.904Z,101048.56
2023-04-05T05:44:33.786Z,101043.34
2023-04-05T05:47:03.638Z,101053.66
2023-04-05T05:49:32.470Z,101051.88
2023-04-05T05:52:02.890Z,101047.47
2023-04-05T05:54:31.663Z,101050.00
2023-04-05T05:57:02.246Z,101049.06
2023-04-05T05:59:31.130Z,101052.47
2023-04-05T06:02:00.202Z,101042.00
2023-04-05T06:04:29.273Z,101051.41
2023-04-05T06:06:59.157Z,101054.00
2023-04-05T06:09:29.630Z,101051.53
2023-04-05T06:11:58.728Z,101061.78
2023-04-05T06:14:28.744Z,101054.97
2023-04-05T06:16:57.860Z,101055.75
2023-04-05T06:19:26.661Z,101051.38
2023-04-05T06:21:56.642Z,101053.75
2023-04-05T06:24:26.470Z,101059.78
2023-04-05T06:26:56.909Z,101067.63
2023-04-05T06:29:26.058Z,101061.72
2023-04-05T06:31:56.470Z,101064.25
2023-04-05T06:34:25.237Z,101071.09
2023-04-05T06:36:55.937Z,101067.56
2023-04-05T06:39:24.673Z,101073.53
2023-04-05T06:41:53.780Z,101070.81
2023-04-05T06:44:29.756Z,101073.44
2023-04-05T06:46:59.253Z,101077.03
2023-04-05T06:49:27.945Z,101079.53
2023-04-05T06:51:57.028Z,101069.97
2023-04-05T06:54:25.972Z,101081.16
2023-04-05T06:56:57.143Z,101079.34
2023-04-05T06:59:27.469Z,101078.50
2023-04-05T07:01:58.192Z,101079.28
2023-04-05T07:04:29.327Z,101076.72
2023-04-05T07:06:58.807Z,101081.84
2023-04-05T07:09:30.273Z,101077.41
2023-04-05T07:11:59.491Z,101073.00
2023-04-05T07:14:28.195Z,101075.50
2023-04-05T07:16:58.747Z,101079.63
2023-04-05T07:19:28.146Z,101078.69
2023-04-05T07:21:57.856Z,101076.91
2023-04-05T07:24:26.874Z,101086.22
2023-04-05T07:26:56.912Z,101083.50
2023-04-05T07:29:26.436Z,101081.47
2023-04-05T07:31:55.508Z,101094.50
2023-04-05T07:34:25.664Z,101085.78
2023-04-05T07:36:54.758Z,101088.28
2023-04-05T07:39:23.947Z,101093.44
2023-04-05T07:41:53.264Z,101101.00
2023-04-05T07:44:21.948Z,101095.78
2023-04-05T07:46:51.126Z,101095.59
2023-04-05T07:49:19.964Z,101093.78
2023-04-05T07:51:51.126Z,101088.44
2023-04-05T07:54:19.964Z,101098.59
2023-04-05T07:56:50.311Z,101098.38
2023-04-05T07:59:19.141Z,101093.16
2023-04-05T08:01:48.203Z,101102.59
2023-04-05T08:04:16.920Z,101097.41
2023-04-05T08:06:46.361Z,101094.75
2023-04-05T08:09:16.774Z,101096.25
2023-04-05T08:11:46.234Z,101099.88
2023-04-05T08:14:15.106Z,101099.66
2023-04-05T08:16:44.817Z,101097.81
2023-04-05T08:19:15.626Z,101096.88
2023-04-05T08:21:45.112Z,101096.63
2023-04-05T08:24:14.135Z,101093.25
2023-04-05T08:26:44.639Z,101087.63
2023-04-05T08:29:13.629Z,101094.22
2023-04-05T08:31:45.556Z,101091.81
2023-04-05T08:34:14.432Z,101096.81
2023-04-05T08:36:43.465Z,101095.94
2023-04-05T08:39:12.948Z,101090.69
2023-04-05T08:41:57.094Z,101095.31
2023-04-05T08:44:31.740Z,101092.44
2023-04-05T08:47:02.004Z,101089.50
2023-04-05T08:49:30.881Z,101086.94
2023-04-05T08:52:02.050Z,101084.91
2023-04-05T08:54:31.084Z,101087.13
2023-04-05T08:57:05.984Z,101090.63
2023-04-05T08:59:39.230Z,101088.22
2023-04-05T09:02:18.386Z,101086.81
2023-04-05T09:04:49.874Z,101083.22
2023-04-05T09:07:21.655Z,101082.97
2023-04-05T09:09:55.892Z,101096.44
2023-04-05T09:12:28.117Z,101091.38
2023-04-05T09:14:58.627Z,101086.22
2023-04-05T09:17:29.785Z,101085.38
2023-04-05T09:19:58.630Z,101090.22
2023-04-05T09:22:28.737Z,101087.75
2023-04-05T09:24:57.580Z,101085.91
2023-04-05T09:27:28.245Z,101093.31
2023-04-05T09:30:00.803Z,101087.88
2023-04-05T09:32:30.014Z,101087.69
2023-04-05T09:35:04.102Z,101102.53
2023-04-05T09:37:35.031Z,101091.34
2023-04-05T09:40:07.067Z,101089.59
2023-04-05T09:42:47.130Z,101094.78
2023-04-05T09:45:18.549Z,101096.75
2023-04-05T09:48:00.030Z,101096.06
2023-04-05T09:50:29.254Z,101098.16
2023-04-05T09:53:15.964Z,101092.31
2023-04-05T09:55:45.672Z,101086.03
2023-04-05T09:58:21.908Z,101089.66
2023-04-05T10:01:06.271Z,101090.38
2023-04-05T10:03:49.130Z,101090.00
2023-04-05T10:06:18.340Z,101091.22
2023-04-05T10:08:48.927Z,101087.69
2023-04-05T10:11:20.059Z,101089.94
2023-04-05T10:13:52.641Z,101095.41
2023-04-05T10:16:27.644Z,101093.22
2023-04-05T10:18:56.821Z,101091.19
2023-04-05T10:21:31.249Z,101094.84
2023-04-05T10:24:13.203Z,101087.06
2023-04-05T10:26:56.171Z,101088.09
2023-04-05T10:29:39.393Z,101093.06
2023-04-05T10:32:20.185Z,101094.75
2023-04-05T10:35:07.097Z,101083.81
2023-04-05T10:37:55.024Z,101083.09
2023-04-05T10:40:26.534Z,101086.38
2023-04-05T10:42:55.394Z,101086.44
2023-04-05T10:45:28.675Z,101095.00
2023-04-05T10:48:07.060Z,101091.44
2023-04-05T10:50:38.385Z,101085.13
2023-04-05T10:53:10.387Z,101083.09
2023-04-05T10:55:40.645Z,101084.44
2023-04-05T10:58:11.120Z,101081.00
2023-04-05T11:00:42.553Z,101078.16
2023-04-05T11:03:11.714Z,101077.91
2023-04-05T11:05:41.293Z,101078.44
2023-04-05T11:08:13.833Z,101067.47
2023-04-05T11:10:43.203Z,101066.41
2023-04-05T11:13:12.436Z,101064.00
2023-04-05T11:15:43.023Z,101071.25
2023-04-05T11:18:13.412Z,101062.81
2023-04-05T11:20:52.454Z,101056.69
2023-04-05T11:23:23.268Z,101068.34
2023-04-05T11:25:55.711Z,101058.94
2023-04-05T11:28:32.031Z,101061.44
2023-04-05T11:31:16.699Z,101060.38
2023-04-05T11:34:10.210Z,101069.69
2023-04-05T11:36:45.922Z,101066.22
2023-04-05T11:39:28.400Z,101067.25
2023-04-05T11:42:10.414Z,101059.91
2023-04-05T11:44:45.930Z,101057.53
2023-04-05T11:47:21.733Z,101067.88
2023-04-05T11:49:52.492Z,101069.81
2023-04-05T11:52:22.764Z,101069.00
2023-04-05T11:54:51.645Z,101058.41
2023-04-05T11:57:23.439Z,101068.63
2023-04-05T11:59:53.283Z,101054.91
2023-04-05T12:02:24.252Z,101065.25
2023-04-05T12:04:58.115Z,101067.63
2023-04-05T12:07:29.516Z,101068.44
2023-04-05T12:10:05.567Z,101068.06
2023-04-05T12:12:39.657Z,101065.03
2023-04-05T12:15:11.998Z,101055.38
2023-04-05T12:17:45.461Z,101058.81
2023-04-05T12:20:17.360Z,101055.91
2023-04-05T12:22:49.445Z,101055.91
2023-04-05T12:25:21.030Z,101053.25
2023-04-05T12:27:50.185Z,101051.16
2023-04-05T12:30:21.386Z,101056.72
2023-04-05T12:32:55.223Z,101051.22
2023-04-05T12:35:32.933Z,101054.72
2023-04-05T12:38:03.375Z,101038.81
2023-04-05T12:40:33.094Z,101042.19
2023-04-05T12:43:06.892Z,101050.63
2023-04-05T12:45:41.806Z,101045.75
2023-04-05T12:48:15.973Z,101046.31
2023-04-05T12:50:47.275Z,101049.22
2023-04-05T12:53:21.417Z,101047.53
2023-04-05T12:55:52.353Z,101044.00
2023-04-05T12:58:22.989Z,101046.44
2023-04-05T13:00:51.838Z,101044.00
2023-04-05T13:03:23.849Z,101043.66
2023-04-05T13:05:54.039Z,101037.44
2023-04-05T13:08:23.358Z,101046.09
2023-04-05T13:10:57.690Z,101043.03
2023-04-05T13:13:27.344Z,101038.78
2023-04-05T13:15:56.283Z,101037.03
2023-04-05T13:18:26.720Z,101038.09
2023-04-05T13:20:55.677Z,101033.47
2023-04-05T13:23:24.813Z,101046.38
2023-04-05T13:25:53.647Z,101034.22
2023-04-05T13:28:22.682Z,101042.19
2023-04-05T13:30:52.861Z,101031.47
2023-04-05T13:33:23.622Z,101034.97
2023-04-05T13:35:54.044Z,101032.16
2023-04-05T13:38:23.226Z,101037.81
2023-04-05T13:40:52.195Z,101038.03
2023-04-05T13:43:21.264Z,101041.50
2023-04-05T13:45:50.770Z,101041.13
2023-04-05T13:48:19.781Z,101037.06
2023-04-05T13:50:48.716Z,101037.34
2023-04-05T13:53:19.144Z,101045.09
2023-04-05T13:55:48.052Z,101040.38
2023-04-05T13:58:17.097Z,101038.69
2023-04-05T14:00:46.036Z,101029.31
2023-04-05T14:03:15.164Z,101040.31
2023-04-05T14:05:44.045Z,101039.69
2023-04-05T14:08:13.046Z,101043.75
2023-04-05T14:10:43.604Z,101038.66
2023-04-05T14:13:16.322Z,101035.72
2023-04-05T14:15:45.178Z,101040.44
2023-04-05T14:18:14.251Z,101040.34
2023-04-05T14:20:43.421Z,101044.31
2023-04-05T14:23:12.665Z,101043.31
2023-04-05T14:25:43.013Z,101024.84
2023-04-05T14:28:12.265Z,101047.78
2023-04-05T14:30:41.834Z,101043.59
2023-04-05T14:33:11.310Z,101037.28
2023-04-05T14:35:40.218Z,101042.69
2023-04-05T14:38:09.595Z,101031.41
2023-04-05T14:40:38.883Z,101041.69
2023-04-05T14:43:09.382Z,101036.72
2023-04-05T14:45:38.353Z,101038.19
2023-04-05T14:48:07.793Z,101039.63
2023-04-05T14:50:36.719Z,101039.91
2023-04-05T14:53:05.875Z,101031.72
2023-04-05T14:55:34.719Z,101042.53
2023-04-05T14:58:03.765Z,101039.63
2023-04-05T15:00:35.579Z,101043.47
2023-04-05T15:03:05.172Z,101037.72
2023-04-05T15:05:34.059Z,101039.50
2023-04-05T15:08:03.140Z,101048.34
2023-04-05T15:10:32.044Z,101037.28
2023-04-05T15:13:01.292Z,101050.56
2023-04-05T15:15:30.105Z,101049.44
2023-04-05T15:18:00.671Z,101051.94
2023-04-05T15:20:29.614Z,101052.00
2023-04-05T15:22:58.843Z,101050.28
2023-04-05T15:25:27.710Z,101056.16
2023-04-05T15:28:00.208Z,101055.44
2023-04-05T15:30:31.766Z,101056.53
2023-04-05T15:33:02.407Z,101063.81
2023-04-05T15:35:32.017Z,101062.94
2023-04-05T15:38:01.802Z,101067.06
2023-04-05T15:40:30.529Z,101064.50
2023-04-05T15:43:00.290Z,101071.91
2023-04-05T15:45:29.475Z,101075.28
2023-04-05T15:47:58.560Z,101071.97
2023-04-05T15:50:28.874Z,101074.91
2023-04-05T15:52:58.086Z,101064.66
2023-04-05T15:55:26.863Z,101070.91
2023-04-05T15:57:55.938Z,101072.06
2023-04-05T16:00:24.933Z,101065.16
2023-04-05T16:02:56.072Z,101070.19
2023-04-05T16:05:26.047Z,101069.38
2023-04-05T16:07:56.856Z,101078.25
2023-04-05T16:10:26.459Z,101072.88
2023-04-05T16:12:55.704Z,101067.06
2023-04-05T16:15:24.642Z,101067.22
2023-04-05T16:17:53.701Z,101064.56
2023-04-05T16:20:23.686Z,101063.00
2023-04-05T16:22:53.057Z,101068.28
2023-04-05T16:25:23.351Z,101061.38
2023-04-05T16:27:52.538Z,101058.66
2023-04-05T16:30:21.607Z,101070.78
2023-04-05T16:32:52.156Z,101068.34
2023-04-05T16:35:21.646Z,101067.72
2023-04-05T16:37:50.764Z,101073.91
2023-04-05T16:40:19.865Z,101071.13
2023-04-05T16:42:50.333Z,101066.84
2023-04-05T16:45:19.249Z,101065.25
2023-04-05T16:47:48.637Z,101073.03
2023-04-05T16:50:17.688Z,101064.34
2023-04-05T16:52:47.069Z,101065.94
2023-04-05T16:55:15.942Z,101073.03
2023-04-05T16:57:44.994Z,101075.50
2023-04-05T17:00:16.763Z,101067.81
2023-04-05T17:02:45.965Z,101073.06
2023-04-05T17:05:14.775Z,101070.50
2023-04-05T17:07:44.133Z,101077.59
2023-04-05T17:10:13.147Z,101085.28
2023-04-05T17:12:42.304Z,101080.56
2023-04-05T17:15:12.328Z,101085.78
2023-04-05T17:17:43.007Z,101087.56
2023-04-05T17:20:13.497Z,101083.38
2023-04-05T17:22:42.698Z,101095.00
2023-04-05T17:25:11.939Z,101096.72
2023-04-05T17:27:41.639Z,101096.00
2023-04-05T17:30:11.886Z,101094.25
2023-04-05T17:32:42.694Z,101097.97
2023-04-05T17:35:11.890Z,101086.13
2023-04-05T17:37:41.060Z,101102.56
2023-04-05T17:40:11.056Z,101108.63
2023-04-05T17:42:40.141Z,101111.16
2023-04-05T17:45:10.303Z,101112.41
2023-04-05T17:47:39.597Z,101121.06
2023-04-05T17:50:11.177Z,101112.50
2023-04-05T17:52:40.537Z,101120.22
2023-04-05T17:55:10.481Z,101121.03
2023-04-05T17:57:39.669Z,101117.66
2023-04-05T18:00:10.688Z,101126.34
2023-04-05T18:02:40.873Z,101129.84
2023-04-05T18:05:11.910Z,101131.66
2023-04-05T18:07:42.655Z,101134.28
2023-04-05T18:10:12.569Z,101126.66
2023-04-05T18:12:41.819Z,101132.03
2023-04-05T18:15:11.590Z,101128.59
2023-04-05T18:17:41.252Z,101135.50
2023-04-05T18:20:13.182Z,101134.78
2023-04-05T18:22:42.396Z,101136.41
2023-04-05T18:25:13.376Z,101132.16
2023-04-05T18:27:42.672Z,101134.00
2023-04-05T18:30:12.702Z,101142.56
2023-04-05T18:32:45.321Z,101142.63
2023-04-05T18:35:15.500Z,101141.75
2023-04-05T18:37:44.510Z,101140.00
2023-04-05T18:40:13.694Z,101147.81
2023-04-05T18:42:43.746Z,101141.97
2023-04-05T18:45:13.193Z,101149.66
2023-04-05T18:47:42.245Z,101150.59
2023-04-05T18:50:12.325Z,101142.19
2023-04-05T18:52:42.886Z,101157.66
2023-04-05T18:55:11.770Z,101157.59
2023-04-05T18:57:41.033Z,101157.56
2023-04-05T19:00:11.173Z,101153.41
2023-04-05T19:02:41.151Z,101156.13
2023-04-05T19:05:11.340Z,101156.91
2023-04-05T19:07:41.872Z,101157.72
2023-04-05T19:10:11.980Z,101159.84
2023-04-05T19:12:41.337Z,101161.31
2023-04-05T19:15:11.337Z,101157.91
2023-04-05T19:17:40.625Z,101163.22
2023-04-05T19:20:10.549Z,101163.94
2023-04-05T19:22:39.713Z,101162.41
2023-04-05T19:25:10.887Z,101165.72
2023-04-05T19:27:41.360Z,101166.53
2023-04-05T19:30:12.543Z,101165.78
2023-04-05T19:32:41.832Z,101163.09
2023-04-05T19:35:12.000Z,101169.19
2023-04-05T19:37:41.102Z,101169.19
2023-04-05T19:40:12.388Z,101164.19
2023-04-05T19:42:47.842Z,101166.84
2023-04-05T19:45:25.382Z,101167.59
2023-04-05T19:47:56.315Z,101174.44
2023-04-05T19:50:48.458Z,101158.31
2023-04-05T19:53:42.608Z,101168.63
2023-04-05T19:56:18.472Z,101170.41
2023-04-05T19:58:51.093Z,101170.56
2023-04-05T20:01:34.637Z,101166.09
2023-04-05T20:04:12.237Z,101164.19
2023-04-05T20:06:42.602Z,101165.88
2023-04-05T20:09:13.633Z,101159.06
2023-04-05T20:11:55.944Z,101161.72
2023-04-05T20:14:30.692Z,101159.19
2023-04-05T20:17:00.163Z,101149.50
2023-04-05T20:19:31.200Z,101152.91
2023-04-05T20:22:01.561Z,101150.28
2023-04-05T20:24:30.791Z,101148.59
2023-04-05T20:27:01.270Z,101151.38
2023-04-05T20:29:32.430Z,101147.03
2023-04-05T20:32:03.069Z,101140.81
2023-04-05T20:34:34.850Z,101144.22
2023-04-05T20:37:07.513Z,101146.06
2023-04-05T20:39:36.847Z,101140.78
2023-04-05T20:42:07.668Z,101144.22
2023-04-05T20:44:36.846Z,101140.16
2023-04-05T20:47:05.722Z,101139.41
2023-04-05T20:49:35.137Z,101142.00
2023-04-05T20:52:07.753Z,101137.66
2023-04-05T20:54:36.958Z,101130.78
2023-04-05T20:57:07.147Z,101139.38
2023-04-05T20:59:36.554Z,101144.69
2023-04-05T21:02:05.408Z,101131.84
2023-04-05T21:04:34.695Z,101137.00
2023-04-05T21:07:03.813Z,101134.25
2023-04-05T21:09:32.831Z,101142.09
2023-04-05T21:12:01.641Z,101134.25
2023-04-05T21:14:31.940Z,101132.47
2023-04-05T21:17:00.806Z,101130.78
2023-04-05T21:19:30.002Z,101133.31
2023-04-05T21:21:58.770Z,101130.91
2023-04-05T21:24:27.788Z,101133.28
2023-04-05T21:26:56.878Z,101135.84
2023-04-05T21:29:26.088Z,101140.31
2023-04-05T21:31:56.291Z,101134.31
2023-04-05T21:34:25.390Z,101134.25
2023-04-05T21:36:54.351Z,101133.31
2023-04-05T21:39:23.573Z,101123.97
2023-04-05T21:41:52.292Z,101129.91
2023-04-05T21:44:21.351Z,101128.19
2023-04-05T21:46:50.225Z,101123.75
2023-04-05T21:49:20.728Z,101130.47
2023-04-05T21:51:49.478Z,101123.44
2023-04-05T21:54:18.511Z,101121.88
2023-04-05T21:56:47.322Z,101121.66
2023-04-05T21:59:16.265Z,101117.38
2023-04-05T22:01:45.105Z,101120.91
2023-04-05T22:04:14.149Z,101126.13
2023-04-05T22:06:44.335Z,101118.44
2023-04-05T22:09:13.429Z,101129.69
2023-04-05T22:11:42.292Z,101117.53
2023-04-05T22:14:11.443Z,101106.41
2023-04-05T22:16:40.218Z,101106.34
2023-04-05T22:19:11.574Z,101118.44
2023-04-05T22:21:41.349Z,101113.34
2023-04-05T22:24:12.722Z,101112.38
2023-04-05T22:26:42.192Z,101104.66
2023-04-05T22:29:11.480Z,101108.44
2023-04-05T22:31:40.347Z,101101.56
2023-04-05T22:34:09.439Z,101099.03
2023-04-05T22:36:38.158Z,101100.34
2023-04-05T22:39:07.550Z,101104.88
2023-04-05T22:41:37.831Z,101107.38
2023-04-05T22:44:07.572Z,101108.13
2023-04-05T22:46:37.785Z,101102.94
2023-04-05T22:49:07.309Z,101097.59
2023-04-05T22:51:36.343Z,101096.69
2023-04-05T22:54:05.724Z,101097.72
2023-04-05T22:56:34.389Z,101091.84
2023-04-05T22:59:04.834Z,101092.56
2023-04-05T23:01:33.661Z,101091.84
2023-04-05T23:04:02.788Z,101091.06
2023-04-05T23:06:32.237Z,101093.75
2023-04-05T23:09:03.188Z,101093.75
2023-04-05T23:11:32.261Z,101091.94
2023-04-05T23:14:01.592Z,101092.91
2023-04-05T23:16:31.794Z,101092.19
2023-04-05T23:19:00.877Z,101090.31
2023-04-05T23:21:29.668Z,101086.09
2023-04-05T23:23:58.834Z,101082.53
2023-04-05T23:26:29.016Z,101081.81
2023-04-05T23:28:58.067Z,101078.09
2023-04-05T23:31:26.858Z,101081.50
2023-04-05T23:33:57.480Z,101080.63
2023-04-05T23:36:27.674Z,101085.88
2023-04-05T23:38:58.650Z,101080.75
2023-04-05T23:41:27.472Z,101078.09
2023-04-05T23:43:56.934Z,101083.47
2023-04-05T23:46:26.389Z,101069.56
2023-04-05T23:48:56.862Z,101069.56
2023-04-05T23:51:26.437Z,101067.97
2023-04-05T23:53:55.409Z,101080.09
2023-04-05T23:56:24.129Z,101067.25
2023-04-05T23:58:53.214Z,101070.75
